Map

Track Data

SID SEASON NUMBER BASIN SUBBASIN NAME ISO_TIME NATURE LAT LON WMO_WIND WMO_PRES WMO_AGENCY TRACK_TYPE DIST2LAND LANDFALL IFLAG USA_AGENCY USA_ATCF_ID USA_LAT USA_LON USA_RECORD USA_STATUS USA_WIND USA_PRES USA_SSHS USA_R34_NE USA_R34_SE USA_R34_SW USA_R34_NW USA_R50_NE USA_R50_SE USA_R50_SW USA_R50_NW USA_R64_NE USA_R64_SE USA_R64_SW USA_R64_NW USA_POCI USA_ROCI USA_RMW USA_EYE TOKYO_LAT TOKYO_LON TOKYO_GRADE TOKYO_WIND TOKYO_PRES TOKYO_R50_DIR TOKYO_R50_LONG TOKYO_R50_SHORT TOKYO_R30_DIR TOKYO_R30_LONG TOKYO_R30_SHORT TOKYO_LAND CMA_LAT CMA_LON CMA_CAT CMA_WIND CMA_PRES HKO_LAT HKO_LON HKO_CAT HKO_WIND HKO_PRES NEWDELHI_LAT NEWDELHI_LON NEWDELHI_GRADE NEWDELHI_WIND NEWDELHI_PRES NEWDELHI_CI NEWDELHI_DP NEWDELHI_POCI REUNION_LAT REUNION_LON REUNION_TYPE REUNION_WIND REUNION_PRES REUNION_TNUM REUNION_CI REUNION_RMW REUNION_R34_NE REUNION_R34_SE REUNION_R34_SW REUNION_R34_NW REUNION_R50_NE REUNION_R50_SE REUNION_R50_SW REUNION_R50_NW REUNION_R64_NE REUNION_R64_SE REUNION_R64_SW REUNION_R64_NW BOM_LAT BOM_LON BOM_TYPE BOM_WIND BOM_PRES BOM_TNUM BOM_CI BOM_RMW BOM_R34_NE BOM_R34_SE BOM_R34_SW BOM_R34_NW BOM_R50_NE BOM_R50_SE BOM_R50_SW BOM_R50_NW BOM_R64_NE BOM_R64_SE BOM_R64_SW BOM_R64_NW BOM_ROCI BOM_POCI BOM_EYE BOM_POS_METHOD BOM_PRES_METHOD NADI_LAT NADI_LON NADI_CAT NADI_WIND NADI_PRES WELLINGTON_LAT WELLINGTON_LON WELLINGTON_WIND WELLINGTON_PRES DS824_LAT DS824_LON DS824_STAGE DS824_WIND DS824_PRES TD9636_LAT TD9636_LON TD9636_STAGE TD9636_WIND TD9636_PRES TD9635_LAT TD9635_LON TD9635_WIND TD9635_PRES TD9635_ROCI NEUMANN_LAT NEUMANN_LON NEUMANN_CLASS NEUMANN_WIND NEUMANN_PRES MLC_LAT MLC_LON MLC_CLASS MLC_WIND MLC_PRES USA_GUST BOM_GUST BOM_GUST_PER REUNION_GUST REUNION_GUST_PER USA_SEAHGT USA_SEARAD_NE USA_SEARAD_SE USA_SEARAD_SW USA_SEARAD_NW STORM_SPEED STORM_DIR
2019352S14070 2020 108 SI MM CALVINIA 2019-12-17 12:00:00 NR -13.5000 70.2000 main 1521 1499 O_____________ jtwc_sh SH052020 -13.5000 70.2000 DB 15 1009 -3 1010 280 65 6 292
2019352S14070 2020 108 SI MM CALVINIA 2019-12-17 15:00:00 NR -13.3951 69.9324 main 1499 1486 P_____________ SH052020 -13.3951 69.9324 DB 15 1009 -3 1010 280 65 5 292
2019352S14070 2020 108 SI MM CALVINIA 2019-12-17 18:00:00 NR -13.3000 69.7000 main 1486 1474 O_____________ jtwc_sh SH052020 -13.3000 69.7000 DB 15 1009 -3 1010 280 65 4 293
2019352S14070 2020 108 SI MM CALVINIA 2019-12-17 21:00:00 NR -13.2275 69.5275 main 1474 1465 P_____________ SH052020 -13.2275 69.5275 DB 17 1008 -3 1010 280 65 3 289
2019352S14070 2020 108 SI MM CALVINIA 2019-12-18 00:00:00 NR -13.2000 69.4000 main 1465 1456 O_____________ jtwc_sh SH052020 -13.2000 69.4000 DB 20 1008 -3 1010 280 65 3 277
2019352S14070 2020 108 SI MM CALVINIA 2019-12-18 03:00:00 NR -13.1975 69.2626 main 1456 1441 P_____________ SH052020 -13.1975 69.2626 DB 20 1008 -3 1010 280 65 2 243
2019352S14070 2020 108 SI MM CALVINIA 2019-12-18 06:00:00 NR -13.3000 69.2000 main 1441 1429 O_____________ jtwc_sh SH052020 -13.3000 69.2000 DB 20 1008 -3 1010 280 65 4 184
2019352S14070 2020 108 SI MM CALVINIA 2019-12-18 09:00:00 NR -13.5549 69.2401 main 1423 1420 P_____________ SH052020 -13.5549 69.2401 DB 20 1008 -3 1010 280 65 6 162
2019352S14070 2020 108 SI MM CALVINIA 2019-12-18 12:00:00 NR -13.9000 69.4000 main 1423 1418 O_____________ jtwc_sh SH052020 -13.9000 69.4000 DB 20 1008 -3 1010 280 65 8 148
2019352S14070 2020 108 SI MM CALVINIA 2019-12-18 15:00:00 NR -14.2726 69.6997 main 1429 1429 P_____________ SH052020 -14.2726 69.6997 DB 22 1007 -3 1010 280 65 9 140
2019352S14070 2020 108 SI MM CALVINIA 2019-12-18 18:00:00 TS -14.6000 70.0000 main 1442 1436 O_____________ jtwc_sh SH052020 -14.6000 70.0000 TD 25 1006 -1 1010 280 65 7 142
2019352S14070 2020 108 SI MM CALVINIA 2019-12-18 21:00:00 TS -14.8174 70.1376 main 1441 1441 P_____________ SH052020 -14.8174 70.1376 TD 27 1005 -1 1010 280 65 4 147
2019352S14070 2020 108 SI MM CALVINIA 2019-12-19 00:00:00 TS -14.9000 70.2000 main 1445 1445 O_____________ jtwc_sh SH052020 -14.9000 70.2000 TD 30 1005 -1 1010 280 65 1 95
2019352S14070 2020 108 SI MM CALVINIA 2019-12-19 03:00:00 TS -14.8300 70.2726 main 1460 1460 P_____________ SH052020 -14.8300 70.2726 TD 30 1005 -1 1010 280 65 2 27
2019352S14070 2020 108 SI MM CALVINIA 2019-12-19 06:00:00 TS -14.7000 70.3000 main 1465 1465 O_____________ jtwc_sh SH052020 -14.7000 70.3000 TD 30 1005 -1 1010 280 65 2 0
2019352S14070 2020 108 SI MM CALVINIA 2019-12-19 09:00:00 TS -14.6425 70.2650 main 1470 1461 P_____________ SH052020 -14.6425 70.2650 TD 30 1004 -1 1010 280 65 1 317
2019352S14070 2020 108 SI MM CALVINIA 2019-12-19 12:00:00 TS -14.6000 70.2000 main 1461 1461 O_____________ jtwc_sh SH052020 -14.6000 70.2000 TD 30 1004 -1 1010 280 65 1 306
2019352S14070 2020 108 SI MM CALVINIA 2019-12-19 15:00:00 TS -14.5650 70.1575 main 1461 1451 P_____________ SH052020 -14.5650 70.1575 TD 30 1004 -1 1010 280 65 1 317
2019352S14070 2020 108 SI MM CALVINIA 2019-12-19 18:00:00 TS -14.5000 70.1000 main 1456 1452 O_____________ jtwc_sh SH052020 -14.5000 70.1000 TD 30 1004 -1 1010 280 65 2 323
2019352S14070 2020 108 SI MM CALVINIA 2019-12-19 21:00:00 TS -14.3800 70.0150 main 1452 1448 P_____________ SH052020 -14.3800 70.0150 TD 27 1005 -1 1010 280 65 4 327
2019352S14070 2020 108 SI MM CALVINIA 2019-12-20 00:00:00 TS -14.2000 69.9000 main 1454 1450 O_____________ jtwc_sh SH052020 -14.2000 69.9000 TD 25 1006 -1 1010 280 65 5 333
2019352S14070 2020 108 SI MM CALVINIA 2019-12-20 03:00:00 TS -13.9424 69.7800 main 1461 1451 P_____________ SH052020 -13.9424 69.7800 TD 25 1006 -1 1010 280 65 6 330
2019352S14070 2020 108 SI MM CALVINIA 2019-12-20 06:00:00 TS -13.7000 69.6000 main 1453 1432 O_____________ jtwc_sh SH052020 -13.7000 69.6000 TD 25 1007 -1 1010 280 65 6 311
2019352S14070 2020 108 SI MM CALVINIA 2019-12-20 09:00:00 TS -13.5625 69.3225 main 1432 1410 P_____________ SH052020 -13.5625 69.3225 TD 22 1007 -1 1010 280 65 6 289
2019352S14070 2020 108 SI MM CALVINIA 2019-12-20 12:00:00 NR -13.5000 69.0000 main 1410 1383 O_____________ jtwc_sh SH052020 -13.5000 69.0000 DB 20 1008 -3 1010 280 65 6 277
2019352S14070 2020 108 SI MM CALVINIA 2019-12-20 15:00:00 NR -13.4850 68.7001 main 1383 1356 P_____________ SH052020 -13.4850 68.7001 DB 20 1008 -3 1010 280 65 6 270
2019352S14070 2020 108 SI MM CALVINIA 2019-12-20 18:00:00 NR -13.5000 68.4000 main 1356 1330 O_____________ jtwc_sh SH052020 -13.5000 68.4000 DB 20 1008 -3 1010 280 65 6 268
2019352S14070 2020 108 SI MM CALVINIA 2019-12-20 21:00:00 NR -13.5074 68.1150 main 1330 1303 P_____________ SH052020 -13.5074 68.1150 DB 20 1008 -3 1010 280 65 6 270
2019352S14070 2020 108 SI MM CALVINIA 2019-12-21 00:00:00 NR -13.5000 67.8000 main 1303 1269 O_____________ jtwc_sh SH052020 -13.5000 67.8000 DB 20 1008 -3 1010 280 65 7 275
2019352S14070 2020 108 SI MM CALVINIA 2019-12-21 03:00:00 NR -13.4500 67.4224 main 1275 1241 P_____________ SH052020 -13.4500 67.4224 DB 17 1008 -3 1010 280 65 8 277
2019352S14070 2020 108 SI MM CALVINIA 2019-12-21 06:00:00 NR -13.4000 67.0000 main 1241 1207 O_____________ jtwc_sh SH052020 -13.4000 67.0000 DB 15 1009 -3 1010 280 65 8 273
2019352S14070 2020 108 SI MM CALVINIA 2019-12-21 09:00:00 NR -13.4074 66.5651 main 1207 1166 P_____________ SH052020 -13.4074 66.5651 DB 15 1009 -3 1010 280 65 9 270
2019352S14070 2020 108 SI MM CALVINIA 2019-12-21 12:00:00 NR -13.4000 66.1000 main 1166 1134 O_____________ jtwc_sh SH052020 -13.4000 66.1000 DB 15 1009 -3 1010 280 65 9 277
2019352S14070 2020 108 SI MM CALVINIA 2019-12-21 15:00:00 NR -13.2999 65.6148 main 1134 1103 P_____________ SH052020 -13.2999 65.6148 DB 17 1008 -3 1010 280 65 10 282
2019352S14070 2020 108 SI MM CALVINIA 2019-12-21 18:00:00 NR -13.2000 65.1000 main 1103 1065 O_____________ jtwc_sh SH052020 -13.2000 65.1000 DB 20 1008 -3 1010 280 65 10 276
2019352S14070 2020 108 SI MM CALVINIA 2019-12-21 21:00:00 NR -13.1924 64.5651 main 1065 1022 P_____________ SH052020 -13.1924 64.5651 DB 20 1008 -3 1010 280 65 11 270
2019352S14070 2020 108 SI MM CALVINIA 2019-12-22 00:00:00 NR -13.2000 64.0000 main 1022 988 O_____________ jtwc_sh SH052020 -13.2000 64.0000 DB 20 1008 -3 1010 280 65 11 272
2019352S14070 2020 108 SI MM CALVINIA 2019-12-22 03:00:00 NR -13.1498 63.4224 main 991 953 P_____________ SH052020 -13.1498 63.4224 DB 20 1008 -3 1010 280 65 12 275
2019352S14070 2020 108 SI MM CALVINIA 2019-12-22 06:00:00 NR -13.1000 62.8000 main 953 918 O_____________ jtwc_sh SH052020 -13.1000 62.8000 DB 20 1008 -3 1010 280 65 13 273
2019352S14070 2020 108 SI MM CALVINIA 2019-12-22 09:00:00 NR -13.0923 62.1300 main 912 876 P_____________ SH052020 -13.0923 62.1300 DB 20 1008 -3 1010 280 65 14 270
2019352S14070 2020 108 SI MM CALVINIA 2019-12-22 12:00:00 NR -13.1000 61.4000 main 876 846 O_____________ jtwc_sh SH052020 -13.1000 61.4000 DB 20 1008 -3 1010 280 65 15 269
2019352S14070 2020 108 SI MM CALVINIA 2019-12-22 15:00:00 NR -13.1074 60.6151 main 842 814 P_____________ SH052020 -13.1074 60.6151 DB 17 1008 -3 1010 280 65 16 270
2019352S14070 2020 108 SI MM CALVINIA 2019-12-22 18:00:00 NR -13.1000 59.8000 main 814 795 O_____________ jtwc_sh SH052020 -13.1000 59.8000 DB 15 1009 -3 1010 280 65 16 271
2019352S14070 2020 108 SI MM CALVINIA 2019-12-22 21:00:00 NR -13.0723 59.0001 main 795 790 P_____________ SH052020 -13.0723 59.0001 DB 15 1009 -3 1010 280 65 16 274
2019352S14070 2020 108 SI MM CALVINIA 2019-12-23 00:00:00 NR -13.0000 58.2000 main 796 787 O_____________ jtwc_sh SH052020 -13.0000 58.2000 DB 15 1009 -3 1010 280 65 16 278
2019352S14070 2020 108 SI MM CALVINIA 2019-12-23 03:00:00 NR -12.8500 57.3698 main 787 714 P_____________ SH052020 -12.8500 57.3698 DB 15 1009 -3 1010 280 65 16 281
2019352S14070 2020 108 SI MM CALVINIA 2019-12-23 06:00:00 NR -12.7000 56.6000 main 714 653 O_____________ jtwc_sh SH052020 -12.7000 56.6000 DB 15 1009 -3 1010 280 65 14 279
2019352S14070 2020 108 SI MM CALVINIA 2019-12-23 09:00:00 NR -12.6421 55.9777 main 653 589 P_____________ SH052020 -12.6421 55.9777 DB 15 1009 -3 1010 280 65 12 275
2019352S14070 2020 108 SI MM CALVINIA 2019-12-23 12:00:00 NR -12.6000 55.4000 main 589 519 O_____________ jtwc_sh SH052020 -12.6000 55.4000 DB 15 1009 -3 1010 280 65 13 275
2019352S14070 2020 108 SI MM CALVINIA 2019-12-23 15:00:00 NR -12.5378 54.6900 main 519 458 P_____________ SH052020 -12.5378 54.6900 DB 17 1008 -3 1010 280 65 13 279
2019352S14070 2020 108 SI MM CALVINIA 2019-12-23 18:00:00 NR -12.4000 54.1000 main 458 432 O_____________ jtwc_sh SH052020 -12.4000 54.1000 DB 20 1007 -3 1010 280 65 10 296
2019352S14070 2020 108 SI MM CALVINIA 2019-12-23 21:00:00 NR -12.1222 53.8176 main 435 427 P_____________ SH052020 -12.1222 53.8176 DB 20 1008 -3 1008 280 65 7 327
2019352S14070 2020 108 SI MM CALVINIA 2019-12-24 00:00:00 NR -11.8000 53.7000 main 434 431 O_____________ jtwc_sh SH052020 -11.8000 53.7000 DB 20 1010 -3 1007 280 65 6 341
2019352S14070 2020 108 SI MM CALVINIA 2019-12-24 03:00:00 NR -11.5124 53.6076 main 435 430 P_____________ SH052020 -11.5124 53.6076 DB 20 1008 -3 1008 280 65 5 338
2019352S14070 2020 108 SI MM CALVINIA 2019-12-24 06:00:00 NR -11.3000 53.5000 main 435 421 O_____________ jtwc_sh SH052020 -11.3000 53.5000 DB 20 1007 -3 1010 280 65 5 313
2019352S14070 2020 108 SI MM CALVINIA 2019-12-24 09:00:00 NR -11.2050 53.2650 main 421 392 P_____________ SH052020 -11.2050 53.2650 DB 20 1007 -3 1010 280 65 5 282
2019352S14070 2020 108 SI MM CALVINIA 2019-12-24 12:00:00 NR -11.2000 53.0000 main 392 374 O_____________ jtwc_sh SH052020 -11.2000 53.0000 DB 20 1007 -3 1010 280 65 5 267
2019352S14070 2020 108 SI MM CALVINIA 2019-12-24 15:00:00 NR -11.2275 52.7850 main 374 349 P_____________ SH052020 -11.2275 52.7850 DB 20 1007 -3 1010 280 65 4 256
2019352S14070 2020 108 SI MM CALVINIA 2019-12-24 18:00:00 NR -11.3000 52.6000 main 349 334 O_____________ jtwc_sh SH052020 -11.3000 52.6000 DB 20 1008 -3 1010 280 65 4 244
2019352S14070 2020 108 SI MM CALVINIA 2019-12-24 21:00:00 NR -11.3925 52.4425 main 325 310 P_____________ SH052020 -11.3925 52.4425 DB 20 1008 -3 1010 280 65 4 236
2019352S14070 2020 108 SI MM CALVINIA 2019-12-25 00:00:00 NR -11.5000 52.3000 main 310 295 O_____________ jtwc_sh SH052020 -11.5000 52.3000 DB 20 1008 -3 1010 280 65 4 234
2019352S14070 2020 108 SI MM CALVINIA 2019-12-25 03:00:00 NR -11.6000 52.1500 main 295 270 P_____________ SH052020 -11.6000 52.1500 DB 17 1008 -3 1010 280 65 4 236
2019352S14070 2020 108 SI MM CALVINIA 2019-12-25 06:00:00 NR -11.7000 52.0000 main 270 246 O_____________ jtwc_sh SH052020 -11.7000 52.0000 DB 15 1009 -3 1010 280 65 4 240
2019352S14070 2020 108 SI MM CALVINIA 2019-12-25 09:00:00 NR -11.7925 51.8125 main 246 231 P_____________ SH052020 -11.7925 51.8125 DB 15 1009 -3 1010 280 65 4 236
2019352S14070 2020 108 SI MM CALVINIA 2019-12-25 12:00:00 NR -11.9000 51.7000 main 231 225 O_____________ jtwc_sh SH052020 -11.9000 51.7000 DB 15 1009 -3 1010 280 65 3 196
2019352S14070 2020 108 SI MM CALVINIA 2019-12-25 15:00:00 NR -12.0425 51.7475 main 225 225 P_____________ SH052020 -12.0425 51.7475 DB 15 1009 -3 1010 280 65 4 147
2019352S14070 2020 108 SI MM CALVINIA 2019-12-25 18:00:00 NR -12.2000 51.9000 main 234 230 O_____________ jtwc_sh SH052020 -12.2000 51.9000 DB 15 1009 -3 1010 280 65 4 136
2019352S14070 2020 108 SI MM CALVINIA 2019-12-25 21:00:00 NR -12.3649 52.0625 main 248 248 P_____________ SH052020 -12.3649 52.0625 DB 15 1009 -3 1010 280 65 5 128
2019352S14070 2020 108 SI MM CALVINIA 2019-12-26 00:00:00 NR -12.5000 52.3000 main 266 266 O_____________ jtwc_sh SH052020 -12.5000 52.3000 DB 15 1009 -3 1010 280 65 6 113
2019352S14070 2020 108 SI MM CALVINIA 2019-12-26 03:00:00 NR -12.6026 52.6499 main 295 295 P_____________ SH052020 -12.6026 52.6499 DB 15 1009 -3 1010 280 65 7 98
2019352S14070 2020 108 SI MM CALVINIA 2019-12-26 06:00:00 NR -12.6000 53.0000 main 337 337 O_____________ jtwc_sh SH052020 -12.6000 53.0000 DB 15 1009 -3 1010 280 65 6 75
2019352S14070 2020 108 SI MM CALVINIA 2019-12-26 09:00:00 NR -12.4449 53.2376 main 364 364 P_____________ SH052020 -12.4449 53.2376 DB 15 1009 -3 1010 280 65 6 44
2019352S14070 2020 108 SI MM CALVINIA 2019-12-26 12:00:00 NR -12.2000 53.4000 main 390 390 O_____________ jtwc_sh SH052020 -12.2000 53.4000 DB 15 1009 -3 1010 280 65 6 26
2019352S14070 2020 108 SI MM CALVINIA 2019-12-26 15:00:00 NR -11.9349 53.4924 main 410 410 P_____________ SH052020 -11.9349 53.4924 DB 17 1008 -3 1010 280 65 5 21
2019352S14070 2020 108 SI MM CALVINIA 2019-12-26 18:00:00 NR -11.7000 53.6000 main 427 427 O_____________ jtwc_sh SH052020 -11.7000 53.6000 DB 20 1008 -3 1010 280 65 5 39
2019352S14070 2020 108 SI MM CALVINIA 2019-12-26 21:00:00 NR -11.5400 53.8201 main 456 456 P_____________ SH052020 -11.5400 53.8201 DB 20 1007 -3 1008 280 65 5 68
2019352S14070 2020 108 SI MM CALVINIA 2019-12-27 00:00:00 NR -11.5000 54.1000 main 486 486 O_____________ jtwc_sh SH052020 -11.5000 54.1000 DB 20 1006 -3 1007 280 65 5 98
2019352S14070 2020 108 SI MM CALVINIA 2019-12-27 03:00:00 NR -11.6124 54.3625 main 513 510 P_____________ SH052020 -11.6124 54.3625 DB 20 1006 -3 1007 210 92 7 117
2019352S14070 2020 108 SI MM CALVINIA 2019-12-27 06:00:00 NR -11.8000 54.7000 main 538 538 O_____________ jtwc_sh SH052020 -11.8000 54.7000 DB 20 1006 -3 1008 140 120 9 112
2019352S14070 2020 108 SI MM CALVINIA 2019-12-27 09:00:00 NR -11.9350 55.1701 main 588 585 P_____________ SH052020 -11.9350 55.1701 DB 20 1006 -3 1006 177 120 10 107
2019352S14070 2020 108 SI MM CALVINIA 2019-12-27 12:00:00 NR -12.1000 55.7000 main 635 635 O_____________ jtwc_sh SH052020 -12.1000 55.7000 DB 20 1006 -3 1005 215 120 11 112
2019352S14070 2020 108 SI MM CALVINIA 2019-12-27 15:00:00 NR -12.3423 56.1850 main 682 679 P_____________ SH052020 -12.3423 56.1850 DB 20 1006 -3 1006 202 105 16 109
2019352S14070 2020 108 SI MM CALVINIA 2019-12-27 18:00:00 TS -12.6000 57.2200 25 1006 reunion main 779 779 O____O________ jtwc_sh SH052020 -12.6000 56.7000 DB 20 1006 -3 1008 190 90 -12.6000 59.3000 1 25 1006 9.90000 1 18 105
2019352S14070 2020 108 SI MM CALVINIA 2019-12-27 21:00:00 TS -12.8150 58.0074 main 817 799 P____P________ SH052020 -12.8300 57.2849 DB 22 1004 -3 1006 202 90 -12.7850 59.4524 1 25 1005 14 106
2019352S14070 2020 108 SI MM CALVINIA 2019-12-28 00:00:00 TS -13.0000 58.6286 25 1005 reunion main 800 792 O____O________ jtwc_sh SH052020 -13.0000 57.9000 TD 25 1003 -1 1005 215 90 -13.0000 59.6000 1 25 1005 9.90000 1 11 107
2019352S14070 2020 108 SI MM CALVINIA 2019-12-28 03:00:00 TS -13.1399 59.1180 main 797 773 P____P________ SH052020 -12.9973 58.4933 TD 25 1004 -1 1006 217 90 -13.2825 59.7427 1 26 1004 9 115
2019352S14070 2020 108 SI MM CALVINIA 2019-12-28 06:00:00 TS -13.4000 59.5000 27 1003 reunion main 773 732 O____O________ jtwc_sh SH052020 -13.1000 59.1000 TD 25 1006 -1 1008 220 90 -13.7000 59.9000 2 27 1003 1.50000 1.50000 1 11 134
2019352S14070 2020 108 SI MM CALVINIA 2019-12-28 09:00:00 TS -13.9252 59.9620 main 735 674 P____P________ SH052020 -13.5304 59.8242 TD 25 1004 -1 1006 222 90 -14.3200 60.0999 2 27 1003 15 145
2019352S14070 2020 108 SI MM CALVINIA 2019-12-28 12:00:00 TS -14.6000 60.3500 27 1003 reunion main 678 613 O____O________ jtwc_sh SH052020 -14.2000 60.4000 TD 25 1002 -1 1004 225 90 -15.0000 60.3000 2 27 1003 2.00000 2.00000 1 15 158
2019352S14070 2020 108 SI MM CALVINIA 2019-12-28 15:00:00 TS -15.2998 60.5316 main 613 551 P____P________ SH052020 -15.0347 60.5906 TD 25 1002 -1 1005 212 82 -15.5650 60.4725 2 28 1002 14 170
2019352S14070 2020 108 SI MM CALVINIA 2019-12-28 18:00:00 TS -16.0000 60.6000 30 1001 reunion main 551 503 O____O________ jtwc_sh SH052020 -15.9000 60.6000 TD 25 1003 -1 1007 200 75 -16.1000 60.6000 2 30 1001 2.00000 2.00000 1 13 173
2019352S14070 2020 108 SI MM CALVINIA 2019-12-28 21:00:00 TS -16.6224 60.6985 main 503 452 P____P________ SH052020 -16.5874 60.6948 TD 27 1002 -1 1006 200 75 -16.6575 60.7023 2 32 999 12 175
2019352S14070 2020 108 SI MM CALVINIA 2019-12-29 00:00:00 TS -17.2000 60.7000 35 998 reunion main 452 398 O____O________ jtwc_sh SH052020 -17.2000 60.7000 TD 30 1002 -1 1005 200 75 -17.2000 60.7000 3 35 998 2.50000 2.50000 1 12 188
2019352S14070 2020 108 SI MM CALVINIA 2019-12-29 03:00:00 TS -17.7613 60.5340 main 391 339 P____P________ SH052020 -17.8225 60.5378 TD 32 1000 -1 1005 195 75 -17.7001 60.5302 3 36 997 12 199
2019352S14070 2020 108 SI MM CALVINIA 2019-12-29 06:00:00 TS -18.3000 60.3000 38 997 reunion main 339 299 O____O________ jtwc_sh SH052020 -18.4000 60.3000 TS 35 999 0 150 125 55 1005 190 75 -18.2000 60.3000 3 38 997 2.50000 2.50000 170 151 51 0 1 12 199
2019352S14070 2020 108 SI MM CALVINIA 2019-12-29 09:00:00 TS -18.8474 60.1509 main 299 255 P____P________ SH052020 -18.9299 60.1222 TS 37 997 0 150 125 55 1004 195 65 -18.7648 60.1796 3 38 997 170 110 65 0 11 197
2019352S14070 2020 108 SI MM CALVINIA 2019-12-29 12:00:00 TS -19.3500 59.9500 38 997 reunion main 255 196 O____O________ jtwc_sh SH052020 -19.4000 59.9000 TS 40 996 0 150 125 55 20 1003 200 55 -19.3000 60.0000 3 38 997 2.50000 2.50000 170 70 80 0 1 11 210
2019352S14070 2020 108 SI MM CALVINIA 2019-12-29 15:00:00 TS -19.8065 59.5754 main 196 147 P____P________ SH052020 -19.8527 59.5353 TS 40 996 0 102 152 90 32 1004 190 47 -19.7602 59.6154 3 37 997 172 35 95 0 11 221
2019352S14070 2020 108 SI MM CALVINIA 2019-12-29 18:00:00 TS -20.1500 59.2000 37 997 reunion main 147 125 O____O________ jtwc_sh SH052020 -20.2000 59.2000 TS 40 997 0 55 180 125 45 1005 180 40 -20.1000 59.2000 3 37 997 2.50000 2.50000 175 0 110 0 1 8 224
2019352S14070 2020 108 SI MM CALVINIA 2019-12-29 21:00:00 TS -20.3561 59.0097 main 125 115 P____P________ SH052020 -20.4098 59.0997 TS 42 994 0 55 180 125 42 1003 182 37 -20.3024 58.9197 3 38 995 152 12 90 12 4 228
2019352S14070 2020 108 SI MM CALVINIA 2019-12-30 00:00:00 TS -20.4500 58.8500 40 994 reunion main 115 86 O____O________ jtwc_sh SH052020 -20.5000 59.0000 TS 45 991 0 55 180 125 40 1002 185 35 -20.4000 58.7000 3 40 994 3.00000 3.00000 129 24 70 24 1 4 254
2019352S14070 2020 108 SI MM CALVINIA 2019-12-30 03:00:00 TS -20.4789 58.5561 main 86 56 P____P________ SH052020 -20.5078 58.6424 TS 47 991 0 52 120 115 47 1003 185 35 -20.4500 58.4699 3 43 990 84 32 49 29 5 264
2019352S14070 2020 108 SI MM CALVINIA 2019-12-30 06:00:00 TS -20.5000 58.3000 47 987 reunion main 56 47 O____O________ jtwc_sh SH052020 -20.5000 58.3000 TS 50 992 0 50 60 105 55 25 25 1005 185 35 -20.5000 58.3000 3 47 987 3.50000 3.50000 7 40 40 29 35 1 3 246
2019352S14070 2020 108 SI MM CALVINIA 2019-12-30 09:00:00 TS -20.6174 58.2200 main 53 53 P____P________ SH052020 -20.5849 58.2125 TS 52 989 0 62 72 92 62 20 20 1004 187 25 -20.6500 58.2275 3 52 982 7 45 45 37 35 3 201
2019352S14070 2020 108 SI MM CALVINIA 2019-12-30 12:00:00 TS -20.7500 58.2000 57 977 reunion main 56 53 O____O________ jtwc_sh SH052020 -20.7000 58.2000 TS 55 986 0 75 85 80 70 15 15 10 10 1003 190 15 -20.8000 58.2000 3 57 977 4.00000 4.00000 7 51 51 45 35 19 19 19 15 1 2 202
2019352S14070 2020 108 SI MM CALVINIA 2019-12-30 15:00:00 TS -20.8287 58.1386 main 53 53 P____P________ SH052020 -20.8000 58.1272 TS 55 986 0 75 97 80 70 20 20 20 15 1003 210 15 -20.8575 58.1500 3 56 978 8 52 57 49 35 19 19 19 15 2 223
2019352S14070 2020 108 SI MM CALVINIA 2019-12-30 18:00:00 TS -20.9000 58.0500 55 980 reunion main 61 49 O____O________ jtwc_sh SH052020 -20.9000 58.0000 TS 55 986 0 75 110 80 70 25 25 30 20 1003 230 15 -20.9000 58.1000 3 55 980 3.50000 4.00000 9 53 64 53 35 19 19 19 15 1 3 234
2019352S14070 2020 108 SI MM CALVINIA 2019-12-30 21:00:00 TS -20.9812 57.9101 main 59 59 V____P________ jtwc_sh SH052020 -21.0000 57.8000 TS 60 983 0 150 110 175 70 25 25 30 20 1003 230 15 -20.9625 58.0201 3 55 980 11 58 69 56 37 21 21 19 17 3 201
2019352S14070 2020 108 SI MM CALVINIA 2019-12-31 00:00:00 TS -21.1500 57.9500 55 980 reunion main 73 84 O____O________ jtwc_sh SH052020 -21.2000 57.9000 TY 65 980 1 75 110 80 70 25 25 30 20 15 15 15 1004 230 15 -21.1000 58.0000 3 55 980 3.50000 4.00000 14 64 75 59 40 24 24 19 19 1 4 160
2019352S14070 2020 108 SI MM CALVINIA 2019-12-31 03:00:00 TS -21.3996 58.0765 main 108 108 P____P________ SH052020 -21.4591 58.0331 TY 67 979 1 75 87 60 60 32 35 30 25 15 17 1004 225 12 -21.3400 58.1200 3 55 980 15 69 82 64 45 24 26 21 21 7 155
2019352S14070 2020 108 SI MM CALVINIA 2019-12-31 06:00:00 TS -21.7500 58.2500 55 980 reunion main 147 147 O____O________ jtwc_sh SH052020 -21.8000 58.2000 TY 70 978 1 75 65 40 50 40 45 30 30 15 20 15 1004 220 10 -21.7000 58.3000 3 55 980 3.50000 4.00000 16 75 89 70 51 24 29 24 24 1 8 159
2019352S14070 2020 108 SI MM CALVINIA 2019-12-31 09:00:00 TS -22.1837 58.3991 main 203 203 P____P________ SH052020 -22.2124 58.3703 TY 72 976 1 77 70 50 55 45 47 32 32 22 22 17 1004 205 12 -22.1549 58.4279 3 57 977 16 79 99 75 52 32 37 29 29 10 161
2019352S14070 2020 108 SI MM CALVINIA 2019-12-31 12:00:00 TS -22.7000 58.6000 60 975 reunion main 262 262 O____O________ jtwc_sh SH052020 -22.7000 58.6000 TY 75 974 1 80 75 60 60 50 50 35 35 30 25 20 20 1004 190 15 -22.7000 58.6000 3 60 975 4.00000 4.00000 17 83 110 80 53 40 45 35 35 1 12 156
2019352S14070 2020 108 SI MM CALVINIA 2019-12-31 15:00:00 TS -23.2375 58.8989 main 326 326 P____P________ SH052020 -23.2051 58.9277 TY 75 973 1 100 100 77 70 47 42 37 42 32 25 25 20 1004 190 13 -23.2700 58.8701 3 62 972 19 91 119 87 58 42 48 37 37 13 153
2019352S14070 2020 108 SI MM CALVINIA 2019-12-31 18:00:00 TS -23.8500 59.2500 65 970 reunion main 404 399 O____O________ jtwc_sh SH052020 -23.8000 59.3000 TY 75 972 1 120 125 95 80 45 35 40 50 35 25 30 20 1004 190 12 15 -23.9000 59.2000 4 65 970 4.50000 4.50000 21 99 129 94 64 45 51 40 40 1 15 153
2019352S14070 2020 108 SI MM CALVINIA 2019-12-31 21:00:00 TS -24.5376 59.6113 main 487 487 P____P________ SH052020 -24.5126 59.6723 TY 75 970 1 122 127 97 85 55 45 42 47 32 25 25 20 1003 192 12 -24.5625 59.5502 4 65 970 24 139 140 82 67 49 55 40 42 16 156
2019352S14070 2020 108 SI MM CALVINIA 2020-01-01 00:00:00 TS -25.3000 59.9500 65 970 reunion main 585 581 O____O________ jtwc_sh SH052020 -25.3000 60.0000 TY 75 969 1 125 130 100 90 65 55 45 45 30 25 20 20 1002 195 12 15 -25.3000 59.9000 4 65 970 3.50000 4.50000 28 180 151 70 70 53 59 40 45 1 17 161
2019352S14070 2020 108 SI MM CALVINIA 2020-01-01 03:00:00 TS -26.0911 60.2083 main 675 675 P____P________ SH052020 -26.0773 60.2086 TY 72 971 1 122 130 100 87 67 52 47 42 1002 197 12 -26.1049 60.2081 4 61 972 31 189 165 70 75 58 59 42 48 17 165
2019352S14070 2020 108 SI MM CALVINIA 2020-01-01 06:00:00 TS -26.9500 60.4500 57 975 reunion main 769 769 O____O________ jtwc_sh SH052020 -26.9000 60.4000 TY 70 973 1 120 130 100 85 70 50 50 40 1002 200 12 15 -27.0000 60.5000 3 57 975 3.50000 4.00000 35 199 180 70 80 64 59 45 51 1 19 165
2019352S14070 2020 108 SI MM CALVINIA 2020-01-01 09:00:00 TS -27.8887 60.7354 main 880 880 P____P________ SH052020 -27.7775 60.6778 TY 65 975 1 132 130 105 92 72 65 57 47 1002 200 26 -27.9999 60.7929 3 57 974 189 199 94 84 67 61 48 52 20 164
2019352S14070 2020 108 SI MM CALVINIA 2020-01-01 12:00:00 MX -28.8500 61.0500 57 973 reunion main 988 988 O____O________ jtwc_sh SH052020 -28.7000 61.0000 TS 60 978 0 145 130 110 100 75 80 65 55 1002 200 40 -29.0000 61.1000 5 57 973 3.00000 3.50000 180 218 118 89 70 64 51 53 1 19 163
2019352S14070 2020 108 SI MM CALVINIA 2020-01-01 15:00:00 MX -29.7461 61.3786 main 1092 1092 P____P________ SH052020 -29.6348 61.3212 TS 57 979 0 172 172 125 105 92 100 70 55 1003 215 40 -29.8574 61.4360 5 58 971 175 243 144 94 75 76 52 53 19 161
2019352S14070 2020 108 SI MM CALVINIA 2020-01-01 18:00:00 MX -30.6500 61.7500 60 970 reunion main 1198 1208 O____O________ jtwc_sh SH052020 -30.6000 61.7000 TS 55 980 0 200 215 140 110 110 120 75 55 1004 230 40 -30.7000 61.8000 5 60 970 9.90000 170 269 170 99 80 89 53 53 1 20 160
2019352S14070 2020 108 SI MM CALVINIA 2020-01-01 21:00:00 MX -31.6210 62.1671 main 1313 1313 P____P________ SH052020 -31.5925 62.1706 TS 55 980 0 200 215 140 110 110 120 75 55 1004 245 50 -31.6496 62.1636 5 57 971 194 264 175 114 80 89 53 53 21 159
2019352S14070 2020 108 SI MM CALVINIA 2020-01-02 00:00:00 ET -32.6000 62.6500 55 972 reunion main 1433 1433 O____O________ jtwc_sh SH052020 -32.6000 62.7000 EX 55 980 -4 200 215 140 110 110 120 75 55 1004 260 60 -32.6000 62.6000 5 55 972 9.90000 218 259 180 129 80 89 53 53 1 21 156
2019352S14070 2020 108 SI MM CALVINIA 2020-01-02 03:00:00 ET -33.5430 63.1668 main 1543 1543 P____P________ SH052020 -33.6144 63.2142 EX 55 980 -4 215 227 152 110 125 75 82 67 1005 260 60 -33.4717 63.1194 5 51 974 229 255 184 149 89 94 66 66 21 153
2019352S14070 2020 108 SI MM CALVINIA 2020-01-02 06:00:00 ET -34.4500 63.8000 47 977 reunion main 1655 1543 O____O________ jtwc_sh SH052020 -34.6000 63.8000 EX 55 980 -4 230 240 165 110 140 30 90 80 1006 260 60 -34.3000 63.8000 5 47 977 9.90000 240 251 188 170 99 99 80 80 1 21 147
2019352S14070 2020 108 SI MM CALVINIA 2020-01-02 09:00:00 ET -35.3325 64.5506 main 1541 1440 P____P________ SH052020 -35.5583 64.4467 EX 52 981 -4 215 227 152 110 142 30 90 80 1005 260 60 -35.1067 64.6545 5 46 977 234 125 193 184 22 141
2019352S14070 2020 108 SI MM CALVINIA 2020-01-02 12:00:00 ET -36.1500 65.5000 45 978 reunion main 1439 1347 O____O________ jtwc_sh SH052020 -36.4000 65.3000 EX 50 982 -4 200 215 140 110 145 30 90 80 1005 260 60 -35.9000 65.7000 5 45 978 9.90000 229 0 199 199 1 23 132
2019352S14070 2020 108 SI MM CALVINIA 2020-01-02 15:00:00 ET -36.8840 66.6873 main 1335 1259 P____P________ SH052020 -37.0452 66.4622 EX 47 984 -4 200 215 140 110 1006 272 77 -36.7227 66.9124 5 45 978 229 0 204 219 24 125
2019352S14070 2020 108 SI MM CALVINIA 2020-01-02 18:00:00 ET -37.5500 68.0000 45 978 reunion main 1258 1189 O____O________ jtwc_sh SH052020 -37.6000 67.8000 EX 45 987 -4 200 215 140 110 1007 285 95 -37.5000 68.2000 5 45 978 9.90000 229 0 210 240 1 24 123
2019352S14070 2020 108 SI MM CALVINIA 2020-01-02 21:00:00 ET -38.1642 69.2169 main 1178 1118 P____P________ SH052020 -38.1824 69.0941 EX 42 988 -4 207 212 175 160 1008 310 102 -38.1460 69.3396 5 43 979 24 122
2019352S14070 2020 108 SI MM CALVINIA 2020-01-03 00:00:00 ET -38.8000 70.5500 42 980 reunion main 1118 1049 O____O________ jtwc_sh SH052020 -38.8000 70.5000 EX 40 989 -4 215 210 210 210 1010 335 110 -38.8000 70.6000 5 42 980 9.90000 1 27 122
2019352S14070 2020 108 SI MM CALVINIA 2020-01-03 03:00:00 ET -39.6043 72.1198 main 1051 1011 P____P________ SH052020 -39.5417 72.0431 EX 40 986 -4 250 207 207 255 1008 335 110 -39.6669 72.1964 5 41 980 30 120
2019352S14070 2020 108 SI MM CALVINIA 2020-01-03 06:00:00 ET -40.2857 73.8857 40 981 reunion main 1013 1009 O____O________ jtwc_sh SH052020 -40.2000 73.8000 EX 40 983 -4 285 205 205 300 1007 335 110 -40.4000 74.0000 5 40 981 9.90000 1 30 110
2019352S14070 2020 108 SI MM CALVINIA 2020-01-03 09:00:00 ET -40.6112 75.7999 main 1031 1031 P____P________ SH052020 -40.5506 75.7746 EX 40 982 -4 260 205 190 255 1004 335 110 -40.7324 75.8505 5 39 981 30 100
2019352S14070 2020 108 SI MM CALVINIA 2020-01-03 12:00:00 ET -40.8000 77.8500 38 982 reunion main 1088 1088 O____O________ jtwc_sh SH052020 -40.8000 77.9000 EX 40 981 -4 235 205 175 210 1002 335 110 -40.8000 77.7000 5 38 982 9.90000 1 33 99
2019352S14070 2020 108 SI MM CALVINIA 2020-01-03 15:00:00 ET -41.1278 80.0814 main 1161 1161 P_____________ SH052020 -41.1278 80.0814 EX 40 987 -4 257 202 182 230 1002 335 110 5 34 102
2019352S14070 2020 108 SI MM CALVINIA 2020-01-03 18:00:00 ET -41.5000 82.3000 main 1245 O_____________ jtwc_sh SH052020 -41.5000 82.3000 EX 40 993 -4 280 200 190 250 1002 335 110 34 103

About IBTrACS Database

This database is a web-friendly format of International Best Track Archive for Climate Stewardship (IBTrACS), a global best track data archive curated by NOAA dating back to 1842.

Updated: 2022-08-12